Terminal Aerodrome Forecast
Issued by NWS Burlington, VT

Home | Current Version | Previous Version | Text Only | Print | Product List | Glossary On
Versions: 1 2 3 4 5 6 7 8 9 10 11 12 13 14
000
FTUS41 KBTV 281720
TAFBTV
TAF
KBTV 281720Z 2818/2918 23008KT P6SM VCSH FEW020 BKN030 BKN050
      TEMPO 2818/2820 24010G16KT 5SM -SHRA SCT020 BKN029
     FM282100 27007KT P6SM BKN080
     FM290200 00000KT P6SM SCT100
     FM291600 19006KT P6SM SKC=

USA.gov is the U.S. government's official web portal to all federal, state and local government web resources and services.